KLAW/LAW METAR and TAF weather

Enter ICAO airport designator
Station Type Date Time Source
KLAW METAR 2019/09/21 20:53 UTC NOAA

KLAW 212053Z 18013G21KT 10SM FEW049 31/21 A2993 RMK AO2 SLP123 T03110206 56026


Station Type Date Time Source
KLAW Decoded METAR 2019/09/21 20:53 UTC NOAA

LAWTON - FORT SILL REGIONAL, OK, United States (KLAW) 34-34N 98-25W 337M
Sep 21, 2019 - 04:53 PM EDT / 2019.09.21 2053 UTC
Wind: from the S (180 degrees) at 15 MPH (13 KT) gusting to 24 MPH (21 KT):0
Visibility: 10 mile(s):0
Sky conditions: mostly clear
Temperature: 88.0 F (31.1 C)
Dew Point: 69.1 F (20.6 C)
Relative Humidity: 53%
Pressure (altimeter): 29.93 in. Hg (1013 hPa)
Pressure tendency: 0.08 inches (2.6 hPa) lower than three hours ago
ob: KLAW 212053Z 18013G21KT 10SM FEW049 31/21 A2993 RMK AO2 SLP123 T03110206 56026
cycle: 21

Station Type Date Time Source
KLAW TAF 2019/09/21 18:24 UTC NOAA

KLAW 211723Z 2118/2218 18012G20KT P6SM BKN020 OVC030
FM212000 18015G23KT P6SM BKN050 BKN150
FM220000 15013KT P6SM BKN050 OVC100 PROB30 2207/2210 5SM -TSRA BKN030CB OVC100

Example: see airport list